createdAt,value
2023-05-01T00:00:44.924Z,39.11
2023-05-01T00:03:11.745Z,39.26
2023-05-01T00:05:40.001Z,38.97
2023-05-01T00:08:06.781Z,39.04
2023-05-01T00:10:34.934Z,39.14
2023-05-01T00:13:01.783Z,39.12
2023-05-01T00:15:28.588Z,38.97
2023-05-01T00:17:55.456Z,39.18
2023-05-01T00:20:22.392Z,39.17
2023-05-01T00:22:50.559Z,39.12
2023-05-01T00:25:17.362Z,39.38
2023-05-01T00:27:44.248Z,38.96
2023-05-01T00:30:11.527Z,39.26
2023-05-01T00:32:38.331Z,39.15
2023-05-01T00:35:05.632Z,39.34
2023-05-01T00:37:32.427Z,39.55
2023-05-01T00:40:00.630Z,39.39
2023-05-01T00:42:27.456Z,39.39
2023-05-01T00:44:54.606Z,39.29
2023-05-01T00:47:21.456Z,39.49
2023-05-01T00:49:49.557Z,39.40
2023-05-01T00:52:16.505Z,39.45
2023-05-01T00:54:43.335Z,39.37
2023-05-01T00:57:11.588Z,39.27
2023-05-01T00:59:38.384Z,39.15
2023-05-01T01:02:05.192Z,39.31
2023-05-01T01:04:32.077Z,39.37
2023-05-01T01:07:09.568Z,39.13
2023-05-01T01:09:41.818Z,39.21
2023-05-01T01:12:15.514Z,39.14
2023-05-01T01:14:45.278Z,39.35
2023-05-01T01:17:16.594Z,39.23
2023-05-01T01:20:04.064Z,39.26
2023-05-01T01:22:31.591Z,39.57
2023-05-01T01:25:20.230Z,39.72
2023-05-01T01:27:58.219Z,39.69
2023-05-01T01:30:43.491Z,39.51
2023-05-01T01:33:22.529Z,39.63
2023-05-01T01:35:53.715Z,39.39
2023-05-01T01:38:22.050Z,39.26
2023-05-01T01:40:53.786Z,39.60
2023-05-01T01:43:22.093Z,39.52
2023-05-01T01:45:53.988Z,39.22
2023-05-01T01:48:23.903Z,39.23
2023-05-01T01:50:53.343Z,39.45
2023-05-01T01:53:21.384Z,39.23
2023-05-01T01:55:48.307Z,39.50
2023-05-01T01:58:15.809Z,39.34
2023-05-01T02:00:44.329Z,39.33
2023-05-01T02:03:13.062Z,39.34
2023-05-01T02:05:40.562Z,39.43
2023-05-01T02:08:09.560Z,39.55
2023-05-01T02:10:36.781Z,39.78
2023-05-01T02:13:04.247Z,39.81
2023-05-01T02:15:31.490Z,39.77
2023-05-01T02:17:59.054Z,39.79
2023-05-01T02:20:26.627Z,39.54
2023-05-01T02:22:53.797Z,39.61
2023-05-01T02:25:22.096Z,39.37
2023-05-01T02:27:52.797Z,39.55
2023-05-01T02:30:19.649Z,39.22
2023-05-01T02:32:46.573Z,39.38
2023-05-01T02:35:13.464Z,39.29
2023-05-01T02:37:40.417Z,39.31
2023-05-01T02:40:07.818Z,39.27
2023-05-01T02:42:37.301Z,39.46
2023-05-01T02:45:06.707Z,39.61
2023-05-01T02:47:37.041Z,39.44
2023-05-01T02:50:04.806Z,39.32
2023-05-01T02:52:31.864Z,39.42
2023-05-01T02:54:59.187Z,39.52
2023-05-01T02:57:26.071Z,39.69
2023-05-01T02:59:54.386Z,39.49
2023-05-01T03:02:21.330Z,39.58
2023-05-01T03:04:48.171Z,39.69
2023-05-01T03:07:14.985Z,39.77
2023-05-01T03:09:41.824Z,39.61
2023-05-01T03:12:09.066Z,39.60
2023-05-01T03:14:35.893Z,39.25
2023-05-01T03:17:04.037Z,39.50
2023-05-01T03:19:30.895Z,39.19
2023-05-01T03:21:57.695Z,39.42
2023-05-01T03:24:24.596Z,39.59
2023-05-01T03:26:51.412Z,39.52
2023-05-01T03:29:18.263Z,39.35
2023-05-01T03:31:45.153Z,39.49
2023-05-01T03:34:13.350Z,39.53
2023-05-01T03:36:40.148Z,39.42
2023-05-01T03:39:06.930Z,39.36
2023-05-01T03:41:33.731Z,39.54
2023-05-01T03:44:00.537Z,39.64
2023-05-01T03:46:27.491Z,39.54
2023-05-01T03:48:54.533Z,39.57
2023-05-01T03:51:22.701Z,39.67
2023-05-01T03:53:49.493Z,39.66
2023-05-01T03:56:16.314Z,39.61
2023-05-01T03:58:43.108Z,39.55
2023-05-01T04:01:09.925Z,39.50
2023-05-01T04:03:36.965Z,39.30
2023-05-01T04:06:04.055Z,39.21
2023-05-01T04:08:32.261Z,39.72
2023-05-01T04:10:59.199Z,39.69
2023-05-01T04:13:25.979Z,39.75
2023-05-01T04:15:52.810Z,39.31
2023-05-01T04:18:19.755Z,37.71
2023-05-01T04:20:46.608Z,37.38
2023-05-01T04:23:13.382Z,35.51
2023-05-01T04:25:41.559Z,35.48
2023-05-01T04:28:10.495Z,34.69
2023-05-01T04:30:37.352Z,34.21
2023-05-01T04:33:04.231Z,34.51
2023-05-01T04:35:31.057Z,34.84
2023-05-01T04:37:57.844Z,34.02
2023-05-01T04:40:24.915Z,34.89
2023-05-01T04:42:53.072Z,34.78
2023-05-01T04:45:19.856Z,33.93
2023-05-01T04:47:46.720Z,33.72
2023-05-01T04:50:13.523Z,34.00
2023-05-01T04:52:40.381Z,34.15
2023-05-01T04:55:08.104Z,34.25
2023-05-01T04:57:34.986Z,34.28
2023-05-01T05:00:03.423Z,34.14
2023-05-01T05:02:30.287Z,34.38
2023-05-01T05:04:57.134Z,34.58
2023-05-01T05:07:23.926Z,34.60
2023-05-01T05:09:50.803Z,34.62
2023-05-01T05:12:17.653Z,34.96
2023-05-01T05:14:44.449Z,35.48
2023-05-01T05:17:12.764Z,35.45
2023-05-01T05:19:39.574Z,35.80
2023-05-01T05:22:06.551Z,36.13
2023-05-01T05:24:33.695Z,35.86
2023-05-01T05:27:00.483Z,35.96
2023-05-01T05:29:27.283Z,36.25
2023-05-01T05:31:54.207Z,36.11
2023-05-01T05:34:22.467Z,36.05
2023-05-01T05:36:49.267Z,36.06
2023-05-01T05:39:16.110Z,35.98
2023-05-01T05:41:42.906Z,36.10
2023-05-01T05:44:09.700Z,36.32
2023-05-01T05:46:36.550Z,37.06
2023-05-01T05:49:03.517Z,36.88
2023-05-01T05:51:31.673Z,38.20
2023-05-01T05:53:58.475Z,36.79
2023-05-01T05:56:25.260Z,37.38
2023-05-01T05:58:52.155Z,37.52
2023-05-01T06:01:19.008Z,37.41
2023-05-01T06:03:45.862Z,37.53
2023-05-01T06:06:12.832Z,37.43
2023-05-01T06:08:41.153Z,37.25
2023-05-01T06:11:08.562Z,37.92
2023-05-01T06:13:35.363Z,37.35
2023-05-01T06:16:02.286Z,37.55
2023-05-01T06:18:29.240Z,37.49
2023-05-01T06:20:56.115Z,37.49
2023-05-01T06:23:22.959Z,37.47
2023-05-01T06:25:51.148Z,37.51
2023-05-01T06:28:17.932Z,37.51
2023-05-01T06:30:44.801Z,37.75
2023-05-01T06:33:11.660Z,37.65
2023-05-01T06:35:38.784Z,37.69
2023-05-01T06:38:05.829Z,37.78
2023-05-01T06:40:32.662Z,38.28
2023-05-01T06:43:00.880Z,37.82
2023-05-01T06:45:27.696Z,38.05
2023-05-01T06:47:54.667Z,38.16
2023-05-01T06:50:21.539Z,38.32
2023-05-01T06:52:48.366Z,38.17
2023-05-01T06:55:15.202Z,38.28
2023-05-01T06:57:42.009Z,38.11
2023-05-01T07:00:11.188Z,38.17
2023-05-01T07:02:38.208Z,37.97
2023-05-01T07:05:05.425Z,37.96
2023-05-01T07:07:32.408Z,37.77
2023-05-01T07:09:59.547Z,37.95
2023-05-01T07:12:26.532Z,37.64
2023-05-01T07:14:53.523Z,37.47
2023-05-01T07:17:21.796Z,37.58
2023-05-01T07:19:48.616Z,37.63
2023-05-01T07:22:15.466Z,37.63
2023-05-01T07:24:42.257Z,37.60
2023-05-01T07:27:09.046Z,37.56
2023-05-01T07:29:36.050Z,37.58
2023-05-01T07:32:02.950Z,37.53
2023-05-01T07:34:31.164Z,37.70
2023-05-01T07:36:58.034Z,37.83
2023-05-01T07:39:24.949Z,37.83
2023-05-01T07:41:51.733Z,37.90
2023-05-01T07:44:18.546Z,37.91
2023-05-01T07:46:45.330Z,37.86
2023-05-01T07:49:12.120Z,37.63
2023-05-01T07:51:40.289Z,37.54
2023-05-01T07:54:07.070Z,37.62
2023-05-01T07:56:33.949Z,37.40
2023-05-01T07:59:00.859Z,37.64
2023-05-01T08:01:27.728Z,37.48
2023-05-01T08:03:54.726Z,37.86
2023-05-01T08:06:21.832Z,37.42
2023-05-01T08:08:50.030Z,37.76
2023-05-01T08:11:16.816Z,37.53
2023-05-01T08:13:43.632Z,37.94
2023-05-01T08:16:10.512Z,37.56
2023-05-01T08:18:37.336Z,37.72
2023-05-01T08:21:04.199Z,37.73
2023-05-01T08:23:30.989Z,37.96
2023-05-01T08:25:59.196Z,37.88
2023-05-01T08:28:26.167Z,37.84
2023-05-01T08:30:52.969Z,37.76
2023-05-01T08:33:19.795Z,46.80
2023-05-01T08:35:46.605Z,41.06
2023-05-01T08:38:13.449Z,39.49
2023-05-01T08:40:41.161Z,39.09
2023-05-01T08:43:09.554Z,38.95
2023-05-01T08:45:36.728Z,38.84
2023-05-01T08:48:05.273Z,38.86
2023-05-01T08:50:33.726Z,38.85
2023-05-01T08:53:01.260Z,38.90
2023-05-01T08:55:30.025Z,38.87
2023-05-01T08:57:58.407Z,38.79
2023-05-01T09:00:26.636Z,38.57
2023-05-01T09:02:54.086Z,38.86
2023-05-01T09:05:21.187Z,38.56
2023-05-01T09:07:48.354Z,38.73
2023-05-01T09:10:15.841Z,38.52
2023-05-01T09:12:44.535Z,38.79
2023-05-01T09:15:12.026Z,38.47
2023-05-01T09:17:40.480Z,38.82
2023-05-01T09:20:08.018Z,38.49
2023-05-01T09:22:35.090Z,38.63
2023-05-01T09:25:01.974Z,38.56
2023-05-01T09:27:29.682Z,38.31
2023-05-01T09:29:56.695Z,38.58
2023-05-01T09:32:24.963Z,38.32
2023-05-01T09:34:54.085Z,38.26
2023-05-01T09:37:27.604Z,38.47
2023-05-01T09:40:07.774Z,38.46
2023-05-01T09:42:35.094Z,38.43
2023-05-01T09:45:03.013Z,38.32
2023-05-01T09:47:29.992Z,38.31
2023-05-01T09:50:00.173Z,38.59
2023-05-01T09:52:27.394Z,38.33
2023-05-01T09:55:13.017Z,38.47
2023-05-01T09:57:39.942Z,38.46
2023-05-01T10:00:07.250Z,38.87
2023-05-01T10:02:34.584Z,38.75
2023-05-01T10:05:02.953Z,38.68
2023-05-01T10:07:29.897Z,38.79
2023-05-01T10:09:58.514Z,38.69
2023-05-01T10:12:28.096Z,38.46
2023-05-01T10:14:55.563Z,38.52
2023-05-01T10:17:22.721Z,38.39
2023-05-01T10:19:50.081Z,38.34
2023-05-01T10:22:18.230Z,38.18
2023-05-01T10:24:45.124Z,38.21
2023-05-01T10:27:12.630Z,38.22
2023-05-01T10:29:40.379Z,38.32
2023-05-01T10:32:07.880Z,38.25
2023-05-01T10:34:35.707Z,38.15
2023-05-01T10:37:04.219Z,38.13
2023-05-01T10:39:32.970Z,38.20
2023-05-01T10:42:06.407Z,38.32
2023-05-01T10:44:33.490Z,38.27
2023-05-01T10:47:00.342Z,38.46
2023-05-01T10:49:42.067Z,38.45
2023-05-01T10:52:08.865Z,38.46
2023-05-01T10:54:37.022Z,38.40
2023-05-01T10:57:03.935Z,38.47
2023-05-01T10:59:45.605Z,38.31
2023-05-01T11:02:22.015Z,38.62
2023-05-01T11:04:49.782Z,38.18
2023-05-01T11:07:17.812Z,38.13
2023-05-01T11:09:46.862Z,38.03
2023-05-01T11:12:14.559Z,37.88
2023-05-01T11:15:00.348Z,38.02
2023-05-01T11:17:42.481Z,37.98
2023-05-01T11:20:10.321Z,38.26
2023-05-01T11:22:37.826Z,38.14
2023-05-01T11:25:18.547Z,38.16
2023-05-01T11:27:47.407Z,38.18
2023-05-01T11:30:14.256Z,38.35
2023-05-01T11:32:43.407Z,38.33
2023-05-01T11:35:16.243Z,38.19
2023-05-01T11:37:46.067Z,38.28
2023-05-01T11:40:20.831Z,38.57
2023-05-01T11:42:47.968Z,38.22
2023-05-01T11:45:14.923Z,38.14
2023-05-01T11:47:41.734Z,38.13
2023-05-01T11:50:09.397Z,38.19
2023-05-01T11:52:42.627Z,38.03
2023-05-01T11:55:09.554Z,37.92
2023-05-01T11:57:46.102Z,37.99
2023-05-01T12:00:13.760Z,37.92
2023-05-01T12:02:54.918Z,37.98
2023-05-01T12:05:22.219Z,37.99
2023-05-01T12:07:49.008Z,38.29
2023-05-01T12:10:16.319Z,38.19
2023-05-01T12:12:43.487Z,38.05
2023-05-01T12:15:11.993Z,37.98
2023-05-01T12:17:38.828Z,38.01
2023-05-01T12:20:06.367Z,38.13
2023-05-01T12:22:33.168Z,38.36
2023-05-01T12:25:00.416Z,38.23
2023-05-01T12:27:27.628Z,38.36
2023-05-01T12:29:54.645Z,38.11
2023-05-01T12:32:29.877Z,38.22
2023-05-01T12:34:57.057Z,38.07
2023-05-01T12:37:29.583Z,38.12
2023-05-01T12:39:57.147Z,37.92
2023-05-01T12:42:24.054Z,38.19
2023-05-01T12:44:58.180Z,37.98
2023-05-01T12:47:25.556Z,37.89
2023-05-01T12:50:01.380Z,37.99
2023-05-01T12:52:28.292Z,38.02
2023-05-01T12:55:01.702Z,37.77
2023-05-01T12:57:28.568Z,37.92
2023-05-01T12:59:58.987Z,37.96
2023-05-01T13:02:30.228Z,38.01
2023-05-01T13:05:06.878Z,38.21
2023-05-01T13:07:35.228Z,38.17
2023-05-01T13:10:02.638Z,38.28
2023-05-01T13:12:29.868Z,38.17
2023-05-01T13:14:57.176Z,38.10
2023-05-01T13:17:24.841Z,38.30
2023-05-01T13:19:55.085Z,38.50
2023-05-01T13:22:29.850Z,38.65
2023-05-01T13:24:56.689Z,38.31
2023-05-01T13:27:23.692Z,38.24
2023-05-01T13:29:54.134Z,38.11
2023-05-01T13:32:21.124Z,38.08
2023-05-01T13:34:47.929Z,38.30
2023-05-01T13:37:15.701Z,38.18
2023-05-01T13:39:44.272Z,38.16
2023-05-01T13:42:11.536Z,38.04
2023-05-01T13:44:42.824Z,37.97
2023-05-01T13:47:10.401Z,38.05
2023-05-01T13:49:40.414Z,37.91
2023-05-01T13:52:07.382Z,38.06
2023-05-01T13:54:34.670Z,38.26
2023-05-01T13:57:02.874Z,38.13
2023-05-01T13:59:34.216Z,38.45
2023-05-01T14:02:01.030Z,38.24
2023-05-01T14:04:28.061Z,38.18
2023-05-01T14:06:55.344Z,38.44
2023-05-01T14:09:22.191Z,38.33
2023-05-01T14:11:49.829Z,38.33
2023-05-01T14:14:18.281Z,38.16
2023-05-01T14:16:48.625Z,38.21
2023-05-01T14:19:16.038Z,38.21
2023-05-01T14:21:42.956Z,38.05
2023-05-01T14:24:10.224Z,38.19
2023-05-01T14:26:38.749Z,38.26
2023-05-01T14:29:05.689Z,38.36
2023-05-01T14:31:33.918Z,38.21
2023-05-01T14:34:01.507Z,38.30
2023-05-01T14:36:28.947Z,38.09
2023-05-01T14:38:56.237Z,38.39
2023-05-01T14:41:23.080Z,38.75
2023-05-01T14:43:50.886Z,38.64
2023-05-01T14:46:25.691Z,38.78
2023-05-01T14:48:53.941Z,38.80
2023-05-01T14:51:20.750Z,38.77
2023-05-01T14:53:47.593Z,38.59
2023-05-01T14:56:14.452Z,38.56
2023-05-01T14:58:41.299Z,38.56
2023-05-01T15:01:08.093Z,38.54
2023-05-01T15:03:35.149Z,38.44
2023-05-01T15:06:03.403Z,38.54
2023-05-01T15:08:30.207Z,38.71
2023-05-01T15:10:57.022Z,38.78
2023-05-01T15:13:23.861Z,38.73
2023-05-01T15:15:50.715Z,38.56
2023-05-01T15:18:17.787Z,38.58
2023-05-01T15:20:44.665Z,38.69
2023-05-01T15:23:12.825Z,38.42
2023-05-01T15:25:39.635Z,38.44
2023-05-01T15:28:06.447Z,38.47
2023-05-01T15:30:33.252Z,38.80
2023-05-01T15:33:00.359Z,39.10
2023-05-01T15:35:27.213Z,38.91
2023-05-01T15:37:54.097Z,38.92
2023-05-01T15:40:22.303Z,39.05
2023-05-01T15:42:49.100Z,38.91
2023-05-01T15:45:16.068Z,39.02
2023-05-01T15:47:43.032Z,38.99
2023-05-01T15:50:10.638Z,39.11
2023-05-01T15:52:37.475Z,38.94
2023-05-01T15:55:04.808Z,38.58
2023-05-01T15:57:33.149Z,38.63
2023-05-01T16:00:00.321Z,38.80
2023-05-01T16:02:30.650Z,38.65
2023-05-01T16:04:57.502Z,39.25
2023-05-01T16:07:24.345Z,38.83
2023-05-01T16:09:51.789Z,38.73
2023-05-01T16:12:18.816Z,38.86
2023-05-01T16:14:48.080Z,38.95
2023-05-01T16:17:15.722Z,38.94
2023-05-01T16:19:42.674Z,38.89
2023-05-01T16:22:09.470Z,39.16
2023-05-01T16:24:36.338Z,39.26
2023-05-01T16:27:03.209Z,38.94
2023-05-01T16:29:32.145Z,39.19
2023-05-01T16:32:00.611Z,39.05
2023-05-01T16:34:27.726Z,39.07
2023-05-01T16:36:54.523Z,38.94
2023-05-01T16:39:21.732Z,38.93
2023-05-01T16:41:49.279Z,38.88
2023-05-01T16:44:16.407Z,39.05
2023-05-01T16:46:51.478Z,38.96
2023-05-01T16:49:20.015Z,38.90
2023-05-01T16:51:46.831Z,39.25
2023-05-01T16:54:13.653Z,39.17
2023-05-01T16:56:40.472Z,39.04
2023-05-01T16:59:07.283Z,39.25
2023-05-01T17:01:34.509Z,39.44
2023-05-01T17:04:01.367Z,39.55
2023-05-01T17:06:29.579Z,39.36
2023-05-01T17:08:56.448Z,39.34
2023-05-01T17:11:23.265Z,39.41
2023-05-01T17:13:50.094Z,39.65
2023-05-01T17:16:16.981Z,39.46
2023-05-01T17:18:43.779Z,39.49
2023-05-01T17:21:10.587Z,39.81
2023-05-01T17:23:38.757Z,39.33
2023-05-01T17:26:05.550Z,39.27
2023-05-01T17:28:32.347Z,39.45
2023-05-01T17:30:59.326Z,39.48
2023-05-01T17:33:27.353Z,39.22
2023-05-01T17:35:54.195Z,39.12
2023-05-01T17:38:21.010Z,38.99
2023-05-01T17:40:49.157Z,39.46
2023-05-01T17:43:15.965Z,39.27
2023-05-01T17:45:42.978Z,39.25
2023-05-01T17:48:09.850Z,39.37
2023-05-01T17:50:36.788Z,39.27
2023-05-01T17:53:03.605Z,39.53
2023-05-01T17:55:30.411Z,39.32
2023-05-01T17:57:58.595Z,39.65
2023-05-01T18:00:25.408Z,39.42
2023-05-01T18:02:52.542Z,39.49
2023-05-01T18:05:19.404Z,39.50
2023-05-01T18:07:46.249Z,39.51
2023-05-01T18:10:13.065Z,39.85
2023-05-01T18:12:39.905Z,39.61
2023-05-01T18:15:08.958Z,39.88
2023-05-01T18:17:35.829Z,39.40
2023-05-01T18:20:02.686Z,39.91
2023-05-01T18:22:29.744Z,39.57
2023-05-01T18:24:56.532Z,39.26
2023-05-01T18:27:23.393Z,39.22
2023-05-01T18:29:51.545Z,39.41
2023-05-01T18:32:19.694Z,39.39
2023-05-01T18:34:46.496Z,39.66
2023-05-01T18:37:13.525Z,39.49
2023-05-01T18:39:40.308Z,39.57
2023-05-01T18:42:07.097Z,39.88
2023-05-01T18:44:33.962Z,40.06
2023-05-01T18:47:00.741Z,39.64
2023-05-01T18:49:28.892Z,39.88
2023-05-01T18:51:55.882Z,39.89
2023-05-01T18:54:22.675Z,44.45
2023-05-01T18:56:49.668Z,40.84
2023-05-01T18:59:16.690Z,40.86
2023-05-01T19:01:43.559Z,40.19
2023-05-01T19:04:10.421Z,40.10
2023-05-01T19:06:38.677Z,40.25
2023-05-01T19:09:05.480Z,39.82
2023-05-01T19:11:32.293Z,40.24
2023-05-01T19:13:59.306Z,39.84
2023-05-01T19:16:26.141Z,39.86
2023-05-01T19:18:52.992Z,39.86
2023-05-01T19:21:19.969Z,39.99
2023-05-01T19:23:48.165Z,40.08
2023-05-01T19:26:15.212Z,39.86
2023-05-01T19:28:42.105Z,40.00
2023-05-01T19:31:09.124Z,40.38
2023-05-01T19:33:36.108Z,40.42
2023-05-01T19:36:02.992Z,40.29
2023-05-01T19:38:29.831Z,40.28
2023-05-01T19:40:57.976Z,40.13
2023-05-01T19:43:25.015Z,39.92
2023-05-01T19:45:51.842Z,40.02
2023-05-01T19:48:18.641Z,39.98
2023-05-01T19:50:45.437Z,39.88
2023-05-01T19:53:12.512Z,39.61
2023-05-01T19:55:39.327Z,40.02
2023-05-01T19:58:07.546Z,40.11
2023-05-01T20:00:34.421Z,40.41
2023-05-01T20:03:01.265Z,40.53
2023-05-01T20:05:28.439Z,40.54
2023-05-01T20:07:55.437Z,40.62
2023-05-01T20:10:22.240Z,40.56
2023-05-01T20:12:49.080Z,40.47
2023-05-01T20:15:17.257Z,40.37
2023-05-01T20:17:44.254Z,40.46
2023-05-01T20:20:11.312Z,40.32
2023-05-01T20:22:38.089Z,40.36
2023-05-01T20:25:06.884Z,40.65
2023-05-01T20:27:35.704Z,40.19
2023-05-01T20:30:02.643Z,40.22
2023-05-01T20:32:31.051Z,40.29
2023-05-01T20:34:58.067Z,40.21
2023-05-01T20:37:24.969Z,39.97
2023-05-01T20:39:51.768Z,40.16
2023-05-01T20:42:18.639Z,39.91
2023-05-01T20:44:45.445Z,40.12
2023-05-01T20:47:12.257Z,39.89
2023-05-01T20:49:40.477Z,39.92
2023-05-01T20:52:07.371Z,40.33
2023-05-01T20:54:34.148Z,40.06
2023-05-01T20:57:01.129Z,40.30
2023-05-01T20:59:27.976Z,40.03
2023-05-01T21:01:54.921Z,40.43
2023-05-01T21:04:21.917Z,40.40
2023-05-01T21:06:51.736Z,40.42
2023-05-01T21:09:18.675Z,40.43
2023-05-01T21:11:45.487Z,40.24
2023-05-01T21:14:12.290Z,40.30
2023-05-01T21:16:39.214Z,40.23
2023-05-01T21:19:06.773Z,40.05
2023-05-01T21:21:34.885Z,40.17
2023-05-01T21:24:03.178Z,40.05
2023-05-01T21:26:29.990Z,40.00
2023-05-01T21:28:57.726Z,40.22
2023-05-01T21:31:26.862Z,40.20
2023-05-01T21:33:53.773Z,40.52
2023-05-01T21:36:20.570Z,40.51
2023-05-01T21:38:47.562Z,40.24
2023-05-01T21:41:15.891Z,40.49
2023-05-01T21:43:42.857Z,40.42
2023-05-01T21:46:10.342Z,40.50
2023-05-01T21:48:37.374Z,40.76
2023-05-01T21:51:04.311Z,40.51
2023-05-01T21:53:31.867Z,40.72
2023-05-01T21:55:58.778Z,40.67
2023-05-01T21:58:27.820Z,40.46
2023-05-01T22:00:54.888Z,40.42
2023-05-01T22:03:21.822Z,40.28
2023-05-01T22:05:48.638Z,40.28
2023-05-01T22:08:15.408Z,40.53
2023-05-01T22:10:42.275Z,40.44
2023-05-01T22:13:09.079Z,40.70
2023-05-01T22:15:37.348Z,40.30
2023-05-01T22:18:04.206Z,40.37
2023-05-01T22:20:31.063Z,40.53
2023-05-01T22:22:57.872Z,40.55
2023-05-01T22:25:24.986Z,40.38
2023-05-01T22:27:51.769Z,40.37
2023-05-01T22:30:18.562Z,40.48
2023-05-01T22:32:46.943Z,40.82
2023-05-01T22:35:13.749Z,40.69
2023-05-01T22:37:40.554Z,40.76
2023-05-01T22:40:07.851Z,40.97
2023-05-01T22:42:34.660Z,40.55
2023-05-01T22:45:01.481Z,40.79
2023-05-01T22:47:28.443Z,40.73
2023-05-01T22:49:56.757Z,40.50
2023-05-01T22:52:23.735Z,40.57
2023-05-01T22:54:50.558Z,40.51
2023-05-01T22:57:17.353Z,40.28
2023-05-01T22:59:44.149Z,40.41
2023-05-01T23:02:11.039Z,40.59
2023-05-01T23:04:37.835Z,40.63
2023-05-01T23:07:05.985Z,40.67
2023-05-01T23:09:32.817Z,40.43
2023-05-01T23:11:59.646Z,40.76
2023-05-01T23:14:26.435Z,40.55
2023-05-01T23:16:53.524Z,40.73
2023-05-01T23:19:21.436Z,40.72
2023-05-01T23:21:48.557Z,40.76
2023-05-01T23:24:17.818Z,40.60
2023-05-01T23:26:44.843Z,40.63
2023-05-01T23:29:12.048Z,40.84
2023-05-01T23:31:43.579Z,40.93
2023-05-01T23:34:14.147Z,40.85
2023-05-01T23:36:42.455Z,40.89
2023-05-01T23:39:09.263Z,40.90
2023-05-01T23:41:37.468Z,40.76
2023-05-01T23:44:04.464Z,40.60
2023-05-01T23:46:31.381Z,40.44
2023-05-01T23:48:58.211Z,40.61
2023-05-01T23:51:25.022Z,40.74
2023-05-01T23:53:52.031Z,40.44
2023-05-01T23:56:18.826Z,40.47
2023-05-01T23:58:46.965Z,40.73
